sensor_id;sensor_type;location;lat;lon;timestamp;P1;durP1;ratioP1;P2;durP2;ratioP2
76344;SDS011;65160;50.504;3.666;2022-11-21T00:01:57;7.43;;;2.88;;
76344;SDS011;65160;50.504;3.666;2022-11-21T00:04:22;12.10;;;3.97;;
76344;SDS011;65160;50.504;3.666;2022-11-21T00:06:49;9.48;;;2.88;;
76344;SDS011;65160;50.504;3.666;2022-11-21T00:09:15;10.68;;;3.33;;
76344;SDS011;65160;50.504;3.666;2022-11-21T00:11:41;15.27;;;3.65;;
76344;SDS011;65160;50.504;3.666;2022-11-21T00:14:06;9.73;;;3.92;;
76344;SDS011;65160;50.504;3.666;2022-11-21T00:16:31;12.23;;;3.45;;
76344;SDS011;65160;50.504;3.666;2022-11-21T00:18:57;11.00;;;3.75;;
76344;SDS011;65160;50.504;3.666;2022-11-21T00:21:22;8.77;;;3.08;;
76344;SDS011;65160;50.504;3.666;2022-11-21T00:23:48;9.63;;;2.85;;
76344;SDS011;65160;50.504;3.666;2022-11-21T00:26:14;9.05;;;2.90;;
76344;SDS011;65160;50.504;3.666;2022-11-21T00:28:40;8.13;;;2.80;;
76344;SDS011;65160;50.504;3.666;2022-11-21T00:31:06;9.50;;;3.30;;
76344;SDS011;65160;50.504;3.666;2022-11-21T00:33:34;8.98;;;2.80;;
76344;SDS011;65160;50.504;3.666;2022-11-21T00:36:07;10.80;;;3.50;;
76344;SDS011;65160;50.504;3.666;2022-11-21T00:38:33;6.47;;;3.08;;
76344;SDS011;65160;50.504;3.666;2022-11-21T00:40:58;14.73;;;3.40;;
76344;SDS011;65160;50.504;3.666;2022-11-21T00:43:23;10.07;;;2.90;;
76344;SDS011;65160;50.504;3.666;2022-11-21T00:45:49;8.30;;;3.53;;
76344;SDS011;65160;50.504;3.666;2022-11-21T00:48:14;9.00;;;3.65;;
76344;SDS011;65160;50.504;3.666;2022-11-21T00:50:40;15.95;;;2.88;;
76344;SDS011;65160;50.504;3.666;2022-11-21T00:53:05;11.75;;;3.22;;
76344;SDS011;65160;50.504;3.666;2022-11-21T00:55:30;6.50;;;2.60;;
76344;SDS011;65160;50.504;3.666;2022-11-21T00:57:56;11.05;;;3.22;;
76344;SDS011;65160;50.504;3.666;2022-11-21T01:00:21;8.60;;;4.00;;
76344;SDS011;65160;50.504;3.666;2022-11-21T01:02:47;8.88;;;2.72;;
76344;SDS011;65160;50.504;3.666;2022-11-21T01:05:12;6.82;;;2.45;;
76344;SDS011;65160;50.504;3.666;2022-11-21T01:07:38;9.95;;;2.90;;
76344;SDS011;65160;50.504;3.666;2022-11-21T01:10:03;11.95;;;2.72;;
76344;SDS011;65160;50.504;3.666;2022-11-21T01:12:30;9.35;;;2.92;;
76344;SDS011;65160;50.504;3.666;2022-11-21T01:14:55;7.72;;;3.53;;
76344;SDS011;65160;50.504;3.666;2022-11-21T01:17:20;5.93;;;2.47;;
76344;SDS011;65160;50.504;3.666;2022-11-21T01:19:46;11.40;;;2.85;;
76344;SDS011;65160;50.504;3.666;2022-11-21T01:22:11;12.13;;;2.70;;
76344;SDS011;65160;50.504;3.666;2022-11-21T01:24:37;7.05;;;2.42;;
76344;SDS011;65160;50.504;3.666;2022-11-21T01:27:02;11.07;;;2.80;;
76344;SDS011;65160;50.504;3.666;2022-11-21T01:29:27;8.95;;;2.42;;
76344;SDS011;65160;50.504;3.666;2022-11-21T01:31:53;11.70;;;3.10;;
76344;SDS011;65160;50.504;3.666;2022-11-21T01:34:18;9.20;;;2.30;;
76344;SDS011;65160;50.504;3.666;2022-11-21T01:36:44;8.13;;;2.50;;
76344;SDS011;65160;50.504;3.666;2022-11-21T01:39:10;6.88;;;2.47;;
76344;SDS011;65160;50.504;3.666;2022-11-21T01:41:40;8.63;;;3.97;;
76344;SDS011;65160;50.504;3.666;2022-11-21T01:46:46;11.23;;;5.95;;
76344;SDS011;65160;50.504;3.666;2022-11-21T01:54:29;12.20;;;3.28;;
76344;SDS011;65160;50.504;3.666;2022-11-21T01:56:59;7.95;;;3.28;;
76344;SDS011;65160;50.504;3.666;2022-11-21T01:59:30;9.90;;;2.60;;
76344;SDS011;65160;50.504;3.666;2022-11-21T02:02:00;7.03;;;2.65;;
76344;SDS011;65160;50.504;3.666;2022-11-21T02:04:29;9.55;;;2.75;;
76344;SDS011;65160;50.504;3.666;2022-11-21T02:06:56;8.85;;;2.22;;
76344;SDS011;65160;50.504;3.666;2022-11-21T02:09:23;11.43;;;2.17;;
76344;SDS011;65160;50.504;3.666;2022-11-21T02:11:51;10.00;;;2.55;;
76344;SDS011;65160;50.504;3.666;2022-11-21T02:14:22;6.40;;;2.25;;
76344;SDS011;65160;50.504;3.666;2022-11-21T02:16:47;8.07;;;2.42;;
76344;SDS011;65160;50.504;3.666;2022-11-21T02:19:18;13.55;;;2.60;;
76344;SDS011;65160;50.504;3.666;2022-11-21T02:22:04;13.27;;;2.88;;
76344;SDS011;65160;50.504;3.666;2022-11-21T02:24:40;5.28;;;2.30;;
76344;SDS011;65160;50.504;3.666;2022-11-21T02:27:09;13.80;;;2.67;;
76344;SDS011;65160;50.504;3.666;2022-11-21T02:29:35;6.90;;;2.67;;
76344;SDS011;65160;50.504;3.666;2022-11-21T02:32:04;8.02;;;2.10;;
76344;SDS011;65160;50.504;3.666;2022-11-21T02:34:49;5.45;;;2.05;;
76344;SDS011;65160;50.504;3.666;2022-11-21T02:37:15;9.60;;;2.20;;
76344;SDS011;65160;50.504;3.666;2022-11-21T02:39:41;5.30;;;2.47;;
76344;SDS011;65160;50.504;3.666;2022-11-21T02:42:08;8.05;;;2.20;;
76344;SDS011;65160;50.504;3.666;2022-11-21T02:47:15;6.43;;;2.20;;
76344;SDS011;65160;50.504;3.666;2022-11-21T02:49:46;6.07;;;1.83;;
76344;SDS011;65160;50.504;3.666;2022-11-21T02:52:17;7.75;;;2.40;;
76344;SDS011;65160;50.504;3.666;2022-11-21T02:54:43;6.45;;;2.67;;
76344;SDS011;65160;50.504;3.666;2022-11-21T02:57:08;8.73;;;2.45;;
76344;SDS011;65160;50.504;3.666;2022-11-21T02:59:34;7.93;;;1.98;;
76344;SDS011;65160;50.504;3.666;2022-11-21T03:01:59;5.85;;;2.00;;
76344;SDS011;65160;50.504;3.666;2022-11-21T03:04:25;5.95;;;2.53;;
76344;SDS011;65160;50.504;3.666;2022-11-21T03:06:51;6.70;;;2.03;;
76344;SDS011;65160;50.504;3.666;2022-11-21T03:09:16;5.70;;;2.08;;
76344;SDS011;65160;50.504;3.666;2022-11-21T03:11:42;4.25;;;1.70;;
76344;SDS011;65160;50.504;3.666;2022-11-21T03:14:07;7.32;;;2.30;;
76344;SDS011;65160;50.504;3.666;2022-11-21T03:16:33;7.63;;;1.98;;
76344;SDS011;65160;50.504;3.666;2022-11-21T03:18:58;7.53;;;2.00;;
76344;SDS011;65160;50.504;3.666;2022-11-21T03:21:23;6.47;;;2.28;;
76344;SDS011;65160;50.504;3.666;2022-11-21T03:23:49;7.05;;;1.90;;
76344;SDS011;65160;50.504;3.666;2022-11-21T03:26:14;8.68;;;2.10;;
76344;SDS011;65160;50.504;3.666;2022-11-21T03:28:40;6.13;;;2.00;;
76344;SDS011;65160;50.504;3.666;2022-11-21T03:31:06;7.85;;;1.95;;
76344;SDS011;65160;50.504;3.666;2022-11-21T03:33:31;13.10;;;2.20;;
76344;SDS011;65160;50.504;3.666;2022-11-21T03:35:57;5.65;;;2.45;;
76344;SDS011;65160;50.504;3.666;2022-11-21T03:38:22;6.65;;;2.00;;
76344;SDS011;65160;50.504;3.666;2022-11-21T03:40:47;6.90;;;2.67;;
76344;SDS011;65160;50.504;3.666;2022-11-21T03:43:13;6.20;;;1.95;;
76344;SDS011;65160;50.504;3.666;2022-11-21T03:45:38;6.05;;;2.13;;
76344;SDS011;65160;50.504;3.666;2022-11-21T03:48:04;6.10;;;2.05;;
76344;SDS011;65160;50.504;3.666;2022-11-21T03:50:30;6.78;;;2.38;;
76344;SDS011;65160;50.504;3.666;2022-11-21T03:52:55;8.32;;;2.10;;
76344;SDS011;65160;50.504;3.666;2022-11-21T03:55:20;11.32;;;2.33;;
76344;SDS011;65160;50.504;3.666;2022-11-21T03:57:46;5.35;;;1.80;;
76344;SDS011;65160;50.504;3.666;2022-11-21T04:00:12;8.23;;;1.63;;
76344;SDS011;65160;50.504;3.666;2022-11-21T04:02:38;4.35;;;1.60;;
76344;SDS011;65160;50.504;3.666;2022-11-21T04:05:03;4.68;;;1.83;;
76344;SDS011;65160;50.504;3.666;2022-11-21T04:07:29;6.88;;;2.72;;
76344;SDS011;65160;50.504;3.666;2022-11-21T04:09:54;6.90;;;2.03;;
76344;SDS011;65160;50.504;3.666;2022-11-21T04:12:20;8.18;;;1.85;;
76344;SDS011;65160;50.504;3.666;2022-11-21T04:14:45;9.02;;;2.33;;
76344;SDS011;65160;50.504;3.666;2022-11-21T04:17:10;4.15;;;1.52;;
76344;SDS011;65160;50.504;3.666;2022-11-21T04:19:36;5.30;;;1.75;;
76344;SDS011;65160;50.504;3.666;2022-11-21T04:22:01;6.07;;;2.03;;
76344;SDS011;65160;50.504;3.666;2022-11-21T04:24:27;9.73;;;2.20;;
76344;SDS011;65160;50.504;3.666;2022-11-21T04:26:55;6.35;;;1.73;;
76344;SDS011;65160;50.504;3.666;2022-11-21T04:29:21;5.32;;;1.67;;
76344;SDS011;65160;50.504;3.666;2022-11-21T04:31:46;4.43;;;1.80;;
76344;SDS011;65160;50.504;3.666;2022-11-21T04:34:11;5.28;;;1.60;;
76344;SDS011;65160;50.504;3.666;2022-11-21T04:36:37;8.27;;;2.15;;
76344;SDS011;65160;50.504;3.666;2022-11-21T04:39:02;4.63;;;2.05;;
76344;SDS011;65160;50.504;3.666;2022-11-21T04:41:28;7.18;;;2.22;;
76344;SDS011;65160;50.504;3.666;2022-11-21T04:43:53;8.98;;;2.10;;
76344;SDS011;65160;50.504;3.666;2022-11-21T04:46:19;9.80;;;2.35;;
76344;SDS011;65160;50.504;3.666;2022-11-21T04:48:44;5.88;;;1.70;;
76344;SDS011;65160;50.504;3.666;2022-11-21T04:51:10;9.65;;;2.65;;
76344;SDS011;65160;50.504;3.666;2022-11-21T04:53:35;10.60;;;3.42;;
76344;SDS011;65160;50.504;3.666;2022-11-21T04:56:04;9.77;;;3.58;;
76344;SDS011;65160;50.504;3.666;2022-11-21T04:58:30;10.75;;;4.10;;
76344;SDS011;65160;50.504;3.666;2022-11-21T05:00:56;7.90;;;3.60;;
76344;SDS011;65160;50.504;3.666;2022-11-21T05:03:21;8.63;;;3.75;;
76344;SDS011;65160;50.504;3.666;2022-11-21T05:05:47;13.02;;;5.93;;
76344;SDS011;65160;50.504;3.666;2022-11-21T05:08:12;11.85;;;4.85;;
76344;SDS011;65160;50.504;3.666;2022-11-21T05:10:38;6.60;;;3.38;;
76344;SDS011;65160;50.504;3.666;2022-11-21T05:13:22;8.00;;;3.00;;
76344;SDS011;65160;50.504;3.666;2022-11-21T05:15:47;8.65;;;3.50;;
76344;SDS011;65160;50.504;3.666;2022-11-21T05:18:16;12.00;;;3.92;;
76344;SDS011;65160;50.504;3.666;2022-11-21T05:20:43;12.05;;;4.25;;
76344;SDS011;65160;50.504;3.666;2022-11-21T05:23:09;7.95;;;2.72;;
76344;SDS011;65160;50.504;3.666;2022-11-21T05:25:34;10.88;;;2.70;;
76344;SDS011;65160;50.504;3.666;2022-11-21T05:27:59;9.73;;;2.78;;
76344;SDS011;65160;50.504;3.666;2022-11-21T05:30:25;11.30;;;2.60;;
76344;SDS011;65160;50.504;3.666;2022-11-21T05:32:50;9.95;;;2.60;;
76344;SDS011;65160;50.504;3.666;2022-11-21T05:35:16;14.43;;;2.63;;
76344;SDS011;65160;50.504;3.666;2022-11-21T05:37:41;10.57;;;2.67;;
76344;SDS011;65160;50.504;3.666;2022-11-21T05:40:07;8.32;;;2.72;;
76344;SDS011;65160;50.504;3.666;2022-11-21T05:42:32;8.77;;;2.50;;
76344;SDS011;65160;50.504;3.666;2022-11-21T05:45:16;8.20;;;2.42;;
76344;SDS011;65160;50.504;3.666;2022-11-21T05:47:42;7.97;;;2.75;;
76344;SDS011;65160;50.504;3.666;2022-11-21T05:50:08;12.38;;;4.68;;
76344;SDS011;65160;50.504;3.666;2022-11-21T05:52:33;11.75;;;4.10;;
76344;SDS011;65160;50.504;3.666;2022-11-21T05:54:58;8.45;;;3.75;;
76344;SDS011;65160;50.504;3.666;2022-11-21T05:57:24;7.65;;;2.97;;
76344;SDS011;65160;50.504;3.666;2022-11-21T05:59:49;10.02;;;4.38;;
76344;SDS011;65160;50.504;3.666;2022-11-21T06:02:15;12.45;;;5.18;;
76344;SDS011;65160;50.504;3.666;2022-11-21T06:04:59;17.65;;;4.38;;
76344;SDS011;65160;50.504;3.666;2022-11-21T06:07:24;16.50;;;5.70;;
76344;SDS011;65160;50.504;3.666;2022-11-21T06:09:50;12.40;;;4.85;;
76344;SDS011;65160;50.504;3.666;2022-11-21T06:12:15;11.45;;;4.65;;
76344;SDS011;65160;50.504;3.666;2022-11-21T06:14:40;10.35;;;4.57;;
76344;SDS011;65160;50.504;3.666;2022-11-21T06:17:06;10.95;;;3.72;;
76344;SDS011;65160;50.504;3.666;2022-11-21T06:19:31;8.75;;;2.47;;
76344;SDS011;65160;50.504;3.666;2022-11-21T06:21:56;8.57;;;3.00;;
76344;SDS011;65160;50.504;3.666;2022-11-21T06:24:22;7.60;;;3.15;;
76344;SDS011;65160;50.504;3.666;2022-11-21T06:26:48;7.88;;;3.53;;
76344;SDS011;65160;50.504;3.666;2022-11-21T06:29:13;18.38;;;5.18;;
76344;SDS011;65160;50.504;3.666;2022-11-21T06:31:39;16.33;;;4.68;;
76344;SDS011;65160;50.504;3.666;2022-11-21T06:34:04;13.13;;;4.13;;
76344;SDS011;65160;50.504;3.666;2022-11-21T06:36:29;13.90;;;4.88;;
76344;SDS011;65160;50.504;3.666;2022-11-21T06:38:55;13.35;;;4.47;;
76344;SDS011;65160;50.504;3.666;2022-11-21T06:41:21;14.07;;;4.47;;
76344;SDS011;65160;50.504;3.666;2022-11-21T06:43:48;13.68;;;4.07;;
76344;SDS011;65160;50.504;3.666;2022-11-21T06:46:14;11.38;;;4.07;;
76344;SDS011;65160;50.504;3.666;2022-11-21T06:48:40;7.20;;;2.95;;
76344;SDS011;65160;50.504;3.666;2022-11-21T06:51:07;10.27;;;2.97;;
76344;SDS011;65160;50.504;3.666;2022-11-21T06:53:37;16.38;;;5.07;;
76344;SDS011;65160;50.504;3.666;2022-11-21T06:56:03;12.57;;;3.80;;
76344;SDS011;65160;50.504;3.666;2022-11-21T06:58:29;11.25;;;4.20;;
76344;SDS011;65160;50.504;3.666;2022-11-21T07:00:55;11.10;;;4.10;;
76344;SDS011;65160;50.504;3.666;2022-11-21T07:03:21;12.30;;;3.75;;
76344;SDS011;65160;50.504;3.666;2022-11-21T07:05:47;12.23;;;3.83;;
76344;SDS011;65160;50.504;3.666;2022-11-21T07:08:13;10.00;;;4.57;;
76344;SDS011;65160;50.504;3.666;2022-11-21T07:10:39;16.73;;;4.47;;
76344;SDS011;65160;50.504;3.666;2022-11-21T07:13:05;12.68;;;4.18;;
76344;SDS011;65160;50.504;3.666;2022-11-21T07:15:46;12.15;;;5.00;;
76344;SDS011;65160;50.504;3.666;2022-11-21T07:18:12;13.82;;;4.05;;
76344;SDS011;65160;50.504;3.666;2022-11-21T07:20:38;19.20;;;5.47;;
76344;SDS011;65160;50.504;3.666;2022-11-21T07:23:04;13.30;;;4.97;;
76344;SDS011;65160;50.504;3.666;2022-11-21T07:25:30;17.08;;;4.93;;
76344;SDS011;65160;50.504;3.666;2022-11-21T07:28:01;15.95;;;4.45;;
76344;SDS011;65160;50.504;3.666;2022-11-21T07:30:28;10.70;;;3.92;;
76344;SDS011;65160;50.504;3.666;2022-11-21T07:32:57;16.08;;;4.32;;
76344;SDS011;65160;50.504;3.666;2022-11-21T07:35:24;13.97;;;5.13;;
76344;SDS011;65160;50.504;3.666;2022-11-21T07:37:51;11.25;;;4.45;;
76344;SDS011;65160;50.504;3.666;2022-11-21T07:40:16;12.15;;;4.13;;
76344;SDS011;65160;50.504;3.666;2022-11-21T07:42:42;12.93;;;4.65;;
76344;SDS011;65160;50.504;3.666;2022-11-21T07:45:07;12.05;;;3.53;;
76344;SDS011;65160;50.504;3.666;2022-11-21T07:47:33;9.95;;;4.15;;
76344;SDS011;65160;50.504;3.666;2022-11-21T07:49:59;10.48;;;4.05;;
76344;SDS011;65160;50.504;3.666;2022-11-21T07:52:24;16.33;;;4.22;;
76344;SDS011;65160;50.504;3.666;2022-11-21T07:54:50;11.02;;;4.13;;
76344;SDS011;65160;50.504;3.666;2022-11-21T07:57:16;11.75;;;4.45;;
76344;SDS011;65160;50.504;3.666;2022-11-21T07:59:41;11.90;;;4.95;;
76344;SDS011;65160;50.504;3.666;2022-11-21T08:02:13;14.90;;;4.25;;
76344;SDS011;65160;50.504;3.666;2022-11-21T08:04:43;16.58;;;4.68;;
76344;SDS011;65160;50.504;3.666;2022-11-21T08:07:09;14.15;;;4.32;;
76344;SDS011;65160;50.504;3.666;2022-11-21T08:09:34;12.88;;;4.45;;
76344;SDS011;65160;50.504;3.666;2022-11-21T08:12:00;17.33;;;5.63;;
76344;SDS011;65160;50.504;3.666;2022-11-21T08:14:25;9.32;;;4.32;;
76344;SDS011;65160;50.504;3.666;2022-11-21T08:16:51;9.90;;;4.20;;
76344;SDS011;65160;50.504;3.666;2022-11-21T08:19:17;12.27;;;5.55;;
76344;SDS011;65160;50.504;3.666;2022-11-21T08:21:43;9.40;;;4.20;;
76344;SDS011;65160;50.504;3.666;2022-11-21T08:24:08;11.80;;;5.25;;
76344;SDS011;65160;50.504;3.666;2022-11-21T08:26:37;13.40;;;4.65;;
76344;SDS011;65160;50.504;3.666;2022-11-21T08:29:03;12.88;;;5.32;;
76344;SDS011;65160;50.504;3.666;2022-11-21T08:31:28;13.80;;;5.30;;
76344;SDS011;65160;50.504;3.666;2022-11-21T08:33:54;10.50;;;6.05;;
76344;SDS011;65160;50.504;3.666;2022-11-21T08:36:21;9.25;;;5.15;;
76344;SDS011;65160;50.504;3.666;2022-11-21T08:38:46;8.75;;;4.82;;
76344;SDS011;65160;50.504;3.666;2022-11-21T08:41:11;9.68;;;4.45;;
76344;SDS011;65160;50.504;3.666;2022-11-21T08:43:55;13.70;;;6.88;;
76344;SDS011;65160;50.504;3.666;2022-11-21T08:46:21;10.00;;;5.43;;
76344;SDS011;65160;50.504;3.666;2022-11-21T08:48:51;9.63;;;4.85;;
76344;SDS011;65160;50.504;3.666;2022-11-21T08:51:17;11.63;;;6.47;;
76344;SDS011;65160;50.504;3.666;2022-11-21T08:53:42;10.95;;;5.68;;
76344;SDS011;65160;50.504;3.666;2022-11-21T08:56:07;12.63;;;5.65;;
76344;SDS011;65160;50.504;3.666;2022-11-21T08:58:33;13.05;;;6.28;;
76344;SDS011;65160;50.504;3.666;2022-11-21T09:00:58;13.13;;;6.00;;
76344;SDS011;65160;50.504;3.666;2022-11-21T09:03:24;13.10;;;6.32;;
76344;SDS011;65160;50.504;3.666;2022-11-21T09:05:50;10.70;;;5.55;;
76344;SDS011;65160;50.504;3.666;2022-11-21T09:08:15;12.27;;;6.95;;
76344;SDS011;65160;50.504;3.666;2022-11-21T09:10:40;14.48;;;6.65;;
76344;SDS011;65160;50.504;3.666;2022-11-21T09:13:06;11.52;;;6.50;;
76344;SDS011;65160;50.504;3.666;2022-11-21T09:15:31;12.00;;;6.40;;
76344;SDS011;65160;50.504;3.666;2022-11-21T09:18:15;13.98;;;6.50;;
76344;SDS011;65160;50.504;3.666;2022-11-21T09:20:41;13.30;;;6.32;;
76344;SDS011;65160;50.504;3.666;2022-11-21T09:23:12;14.23;;;6.40;;
76344;SDS011;65160;50.504;3.666;2022-11-21T09:25:39;10.93;;;6.38;;
76344;SDS011;65160;50.504;3.666;2022-11-21T09:28:06;14.20;;;7.65;;
76344;SDS011;65160;50.504;3.666;2022-11-21T09:30:32;14.05;;;7.20;;
76344;SDS011;65160;50.504;3.666;2022-11-21T09:32:59;14.75;;;7.75;;
76344;SDS011;65160;50.504;3.666;2022-11-21T09:35:25;10.60;;;6.55;;
76344;SDS011;65160;50.504;3.666;2022-11-21T09:37:51;13.15;;;7.50;;
76344;SDS011;65160;50.504;3.666;2022-11-21T09:40:16;11.98;;;6.80;;
76344;SDS011;65160;50.504;3.666;2022-11-21T09:48:08;12.25;;;6.40;;
76344;SDS011;65160;50.504;3.666;2022-11-21T09:50:38;13.57;;;6.97;;
76344;SDS011;65160;50.504;3.666;2022-11-21T09:56:02;15.30;;;7.28;;
76344;SDS011;65160;50.504;3.666;2022-11-21T09:58:31;13.43;;;6.50;;
76344;SDS011;65160;50.504;3.666;2022-11-21T10:01:00;15.60;;;7.00;;
76344;SDS011;65160;50.504;3.666;2022-11-21T10:03:29;13.15;;;7.07;;
76344;SDS011;65160;50.504;3.666;2022-11-21T10:06:03;13.25;;;6.07;;
76344;SDS011;65160;50.504;3.666;2022-11-21T10:08:42;11.82;;;5.97;;
76344;SDS011;65160;50.504;3.666;2022-11-21T10:11:20;16.02;;;6.22;;
76344;SDS011;65160;50.504;3.666;2022-11-21T10:14:34;15.18;;;6.60;;
76344;SDS011;65160;50.504;3.666;2022-11-21T10:25:33;14.05;;;5.82;;
76344;SDS011;65160;50.504;3.666;2022-11-21T10:28:07;16.83;;;6.15;;
76344;SDS011;65160;50.504;3.666;2022-11-21T10:30:42;16.10;;;5.95;;
76344;SDS011;65160;50.504;3.666;2022-11-21T10:33:13;15.38;;;6.15;;
76344;SDS011;65160;50.504;3.666;2022-11-21T10:35:46;16.10;;;6.05;;
76344;SDS011;65160;50.504;3.666;2022-11-21T10:41:01;12.88;;;6.55;;
76344;SDS011;65160;50.504;3.666;2022-11-21T10:46:22;18.20;;;6.85;;
76344;SDS011;65160;50.504;3.666;2022-11-21T10:49:09;12.82;;;6.32;;
76344;SDS011;65160;50.504;3.666;2022-11-21T10:54:09;10.65;;;6.05;;
76344;SDS011;65160;50.504;3.666;2022-11-21T10:56:55;19.27;;;6.47;;
76344;SDS011;65160;50.504;3.666;2022-11-21T10:59:29;14.80;;;5.72;;
76344;SDS011;65160;50.504;3.666;2022-11-21T11:01:56;16.40;;;6.40;;
76344;SDS011;65160;50.504;3.666;2022-11-21T11:04:44;10.35;;;4.88;;
76344;SDS011;65160;50.504;3.666;2022-11-21T11:09:47;13.98;;;6.25;;
76344;SDS011;65160;50.504;3.666;2022-11-21T11:15:17;13.23;;;5.28;;
76344;SDS011;65160;50.504;3.666;2022-11-21T11:17:48;11.70;;;5.10;;
76344;SDS011;65160;50.504;3.666;2022-11-21T11:20:30;15.63;;;5.38;;
76344;SDS011;65160;50.504;3.666;2022-11-21T11:23:14;14.73;;;5.00;;
76344;SDS011;65160;50.504;3.666;2022-11-21T11:25:46;27.73;;;5.90;;
76344;SDS011;65160;50.504;3.666;2022-11-21T11:30:49;13.68;;;4.97;;
76344;SDS011;65160;50.504;3.666;2022-11-21T11:36:27;17.08;;;5.15;;
76344;SDS011;65160;50.504;3.666;2022-11-21T11:38:54;13.40;;;5.90;;
76344;SDS011;65160;50.504;3.666;2022-11-21T11:47:55;15.30;;;5.18;;
76344;SDS011;65160;50.504;3.666;2022-11-21T11:53:21;9.13;;;4.20;;
76344;SDS011;65160;50.504;3.666;2022-11-21T11:55:55;13.35;;;4.95;;
76344;SDS011;65160;50.504;3.666;2022-11-21T11:59:06;10.10;;;3.58;;
76344;SDS011;65160;50.504;3.666;2022-11-21T12:04:00;13.73;;;4.35;;
76344;SDS011;65160;50.504;3.666;2022-11-21T12:06:36;8.10;;;3.45;;
76344;SDS011;65160;50.504;3.666;2022-11-21T12:12:31;12.25;;;3.38;;
76344;SDS011;65160;50.504;3.666;2022-11-21T12:20:33;11.43;;;3.28;;
76344;SDS011;65160;50.504;3.666;2022-11-21T12:23:03;11.82;;;3.45;;
76344;SDS011;65160;50.504;3.666;2022-11-21T12:25:35;12.90;;;4.47;;
76344;SDS011;65160;50.504;3.666;2022-11-21T12:28:08;11.63;;;3.58;;
76344;SDS011;65160;50.504;3.666;2022-11-21T12:31:08;9.70;;;3.33;;
76344;SDS011;65160;50.504;3.666;2022-11-21T12:36:52;13.10;;;3.30;;
76344;SDS011;65160;50.504;3.666;2022-11-21T12:51:12;10.07;;;3.85;;
76344;SDS011;65160;50.504;3.666;2022-11-21T12:57:16;12.13;;;3.67;;
76344;SDS011;65160;50.504;3.666;2022-11-21T13:02:29;11.82;;;3.95;;
76344;SDS011;65160;50.504;3.666;2022-11-21T13:05:01;11.30;;;4.78;;
76344;SDS011;65160;50.504;3.666;2022-11-21T13:07:28;19.02;;;6.70;;
76344;SDS011;65160;50.504;3.666;2022-11-21T13:09:55;10.63;;;3.88;;
76344;SDS011;65160;50.504;3.666;2022-11-21T13:12:37;14.02;;;4.63;;
76344;SDS011;65160;50.504;3.666;2022-11-21T13:18:27;13.10;;;4.60;;
76344;SDS011;65160;50.504;3.666;2022-11-21T13:27:54;13.70;;;4.95;;
76344;SDS011;65160;50.504;3.666;2022-11-21T13:38:03;16.17;;;6.57;;
76344;SDS011;65160;50.504;3.666;2022-11-21T13:40:37;14.50;;;4.43;;
76344;SDS011;65160;50.504;3.666;2022-11-21T13:45:47;14.38;;;4.70;;
76344;SDS011;65160;50.504;3.666;2022-11-21T13:59:14;15.63;;;5.15;;
76344;SDS011;65160;50.504;3.666;2022-11-21T14:09:54;13.57;;;4.18;;
76344;SDS011;65160;50.504;3.666;2022-11-21T14:12:30;21.63;;;4.70;;
76344;SDS011;65160;50.504;3.666;2022-11-21T14:22:57;12.48;;;4.15;;
76344;SDS011;65160;50.504;3.666;2022-11-21T14:25:45;13.40;;;4.00;;
76344;SDS011;65160;50.504;3.666;2022-11-21T14:28:14;15.93;;;4.67;;
76344;SDS011;65160;50.504;3.666;2022-11-21T14:30:46;14.07;;;4.38;;
76344;SDS011;65160;50.504;3.666;2022-11-21T14:35:58;14.52;;;5.43;;
76344;SDS011;65160;50.504;3.666;2022-11-21T14:38:53;14.20;;;4.68;;
76344;SDS011;65160;50.504;3.666;2022-11-21T14:41:22;13.43;;;4.30;;
76344;SDS011;65160;50.504;3.666;2022-11-21T14:46:34;13.07;;;4.30;;
76344;SDS011;65160;50.504;3.666;2022-11-21T14:51:35;13.07;;;4.00;;
76344;SDS011;65160;50.504;3.666;2022-11-21T14:54:01;13.65;;;5.35;;
76344;SDS011;65160;50.504;3.666;2022-11-21T14:56:30;13.27;;;4.75;;
76344;SDS011;65160;50.504;3.666;2022-11-21T14:58:58;18.23;;;5.50;;
76344;SDS011;65160;50.504;3.666;2022-11-21T15:01:27;14.68;;;4.43;;
76344;SDS011;65160;50.504;3.666;2022-11-21T15:06:30;17.75;;;3.47;;
76344;SDS011;65160;50.504;3.666;2022-11-21T15:09:11;14.02;;;3.65;;
76344;SDS011;65160;50.504;3.666;2022-11-21T15:11:50;16.15;;;4.20;;
76344;SDS011;65160;50.504;3.666;2022-11-21T15:14:34;14.57;;;3.22;;
76344;SDS011;65160;50.504;3.666;2022-11-21T15:17:11;14.43;;;3.58;;
76344;SDS011;65160;50.504;3.666;2022-11-21T15:19:39;22.48;;;4.70;;
76344;SDS011;65160;50.504;3.666;2022-11-21T15:22:06;18.63;;;3.95;;
76344;SDS011;65160;50.504;3.666;2022-11-21T15:24:47;15.95;;;3.42;;
76344;SDS011;65160;50.504;3.666;2022-11-21T15:30:17;10.38;;;3.38;;
76344;SDS011;65160;50.504;3.666;2022-11-21T15:38:17;21.00;;;4.72;;
76344;SDS011;65160;50.504;3.666;2022-11-21T15:41:08;15.23;;;3.55;;
76344;SDS011;65160;50.504;3.666;2022-11-21T15:43:52;12.73;;;3.28;;
76344;SDS011;65160;50.504;3.666;2022-11-21T15:49:10;12.73;;;4.10;;
76344;SDS011;65160;50.504;3.666;2022-11-21T15:51:38;13.20;;;4.43;;
76344;SDS011;65160;50.504;3.666;2022-11-21T15:54:05;15.52;;;4.85;;
76344;SDS011;65160;50.504;3.666;2022-11-21T15:56:32;22.58;;;6.05;;
76344;SDS011;65160;50.504;3.666;2022-11-21T15:58:58;13.10;;;3.80;;
76344;SDS011;65160;50.504;3.666;2022-11-21T16:01:25;16.90;;;4.90;;
76344;SDS011;65160;50.504;3.666;2022-11-21T16:04:00;15.77;;;4.60;;
76344;SDS011;65160;50.504;3.666;2022-11-21T16:06:27;14.88;;;4.82;;
76344;SDS011;65160;50.504;3.666;2022-11-21T16:08:54;16.10;;;3.95;;
76344;SDS011;65160;50.504;3.666;2022-11-21T16:11:29;14.23;;;3.97;;
76344;SDS011;65160;50.504;3.666;2022-11-21T16:13:57;18.52;;;4.53;;
76344;SDS011;65160;50.504;3.666;2022-11-21T16:16:25;15.48;;;4.13;;
76344;SDS011;65160;50.504;3.666;2022-11-21T16:18:54;14.57;;;4.15;;
76344;SDS011;65160;50.504;3.666;2022-11-21T16:21:20;15.82;;;5.43;;
76344;SDS011;65160;50.504;3.666;2022-11-21T16:23:45;13.73;;;4.20;;
76344;SDS011;65160;50.504;3.666;2022-11-21T16:26:11;17.40;;;4.95;;
76344;SDS011;65160;50.504;3.666;2022-11-21T16:28:37;12.90;;;4.97;;
76344;SDS011;65160;50.504;3.666;2022-11-21T16:31:02;13.07;;;3.38;;
76344;SDS011;65160;50.504;3.666;2022-11-21T16:33:29;16.05;;;4.30;;
76344;SDS011;65160;50.504;3.666;2022-11-21T16:35:55;16.42;;;4.00;;
76344;SDS011;65160;50.504;3.666;2022-11-21T16:38:22;14.05;;;3.72;;
76344;SDS011;65160;50.504;3.666;2022-11-21T16:40:55;11.98;;;3.60;;
76344;SDS011;65160;50.504;3.666;2022-11-21T16:43:22;14.23;;;3.10;;
76344;SDS011;65160;50.504;3.666;2022-11-21T16:45:48;13.00;;;3.85;;
76344;SDS011;65160;50.504;3.666;2022-11-21T16:48:13;12.40;;;2.92;;
76344;SDS011;65160;50.504;3.666;2022-11-21T16:50:39;15.10;;;3.20;;
76344;SDS011;65160;50.504;3.666;2022-11-21T16:53:04;12.25;;;2.85;;
76344;SDS011;65160;50.504;3.666;2022-11-21T16:55:30;13.20;;;2.67;;
76344;SDS011;65160;50.504;3.666;2022-11-21T16:57:55;10.93;;;2.88;;
76344;SDS011;65160;50.504;3.666;2022-11-21T17:00:24;15.68;;;2.45;;
76344;SDS011;65160;50.504;3.666;2022-11-21T17:02:50;10.63;;;3.25;;
76344;SDS011;65160;50.504;3.666;2022-11-21T17:05:16;6.80;;;2.47;;
76344;SDS011;65160;50.504;3.666;2022-11-21T17:07:42;12.98;;;2.83;;
76344;SDS011;65160;50.504;3.666;2022-11-21T17:10:08;12.55;;;3.55;;
76344;SDS011;65160;50.504;3.666;2022-11-21T17:12:38;11.00;;;3.38;;
76344;SDS011;65160;50.504;3.666;2022-11-21T17:15:05;12.70;;;3.23;;
76344;SDS011;65160;50.504;3.666;2022-11-21T17:17:33;10.02;;;2.83;;
76344;SDS011;65160;50.504;3.666;2022-11-21T17:19:59;12.43;;;3.53;;
76344;SDS011;65160;50.504;3.666;2022-11-21T17:22:24;18.85;;;4.60;;
76344;SDS011;65160;50.504;3.666;2022-11-21T17:24:52;10.88;;;3.20;;